KFTYKFFC

Guest
Details From KFTY - FULTON CO ARPT BROWN FLD
To KFFC - Atlanta Peachtree City Falcon Fld
Flight Number -
Tags generated
Created
Modified
Stats Distance 28 nm / 51 km
Max Altitude 3,500 ft / 1,067 m
Waypoints 3
Social Downloads 0
Likes 0
Share VATSIM

Download

Looking for another format? Having issues loading an existing format? Contact us
Advertisement - Login to hide

Notes

Basic altitude profile: - Ascent Rate: 2500ft/min - Ascent Speed: 250kts - Cruise Altitude: 35000ft - Cruise Speed: 420kts - Descent Rate: 1500ft/min - Descent Speed: 250kts Options: - Use NATs: yes - Use PACOTS: yes - Use low airways: yes - Use high airways: yes

Route

KFTY ATL KFFC

ID Type Via Altitude Latitude Longitude Leg Dist Tot Dist Heading (true) Name
O KFTY APT - 0 ft / 0 m 33.77927˚ -84.52111˚ - 0 nm - FULTON CO ARPT BROWN FLD
ATL VOR - 3,500 ft / 1,067 m 33.62908˚ -84.43508˚ 9 nm 9 nm 154° / 155° ATLANTA VORTAC
O KFFC APT - 0 ft / 0 m 33.35725˚ -84.57183˚ 17 nm 27 nm 203° / 203° Atlanta Peachtree City Falcon Fld

Altitude Profile

Advertisement - Login to hide

KFTY

Details ICAO KFTY (FTY)
Name FULTON CO ARPT BROWN FLD
Region United States
Timezone America/New_York (UTC-5.0)
Stats Elevation 841 ft / 256 m (AMSL)
Location 33.779267° -84.521109°
Runways 3
Magnetic Variation 5.049° W

METAR

KFTY 111653Z 19003KT 10SM CLR 08/00 A3015 RMK AO2 SLP214 T00780000

Decode

TAF

TAF KFTY 111136Z 1112/1212 24003KT P6SM SKC FM111800 25008KT P6SM FEW070 FM112300 24005KT P6SM FEW250 FM121100 30010KT P6SM BKN250

Decode

Departure Runways

ID Width Length Bearing (true) Bearing (mag) Surface Threshold Offset Overrun Length
08 100 ft / 30 m 5,786 ft / 1,764 m 79.64° 84.69° Asphalt 0 ft / 0 m 0 ft / 0 m
09 60 ft / 18 m 2,795 ft / 852 m 79.60° 84.65° Asphalt 0 ft / 0 m 0 ft / 0 m
14 100 ft / 30 m 4,161 ft / 1,268 m 138.99° 144.04° Asphalt 0 ft / 0 m 0 ft / 0 m
26 100 ft / 30 m 5,786 ft / 1,764 m 259.65° 264.70° Asphalt 0 ft / 0 m 0 ft / 0 m
27 60 ft / 18 m 2,795 ft / 852 m 259.60° 264.65° Asphalt 0 ft / 0 m 0 ft / 0 m
32 100 ft / 30 m 4,161 ft / 1,268 m 318.99° 324.04° Asphalt 199 ft / 61 m 0 ft / 0 m

KFFC

Details ICAO KFFC (FFC)
Name Atlanta Peachtree City Falcon Fld
Region United States
Timezone America/New_York (UTC-5.0)
Stats Elevation 808 ft / 246 m (AMSL)
Location 33.357246° -84.571831°
Runways 1
Magnetic Variation 4.956° W

METAR

KFFC 111653Z AUTO 23003KT 10SM CLR 12/M01 A3016 RMK AO2 SLP220 T01171006

Decode

TAF

Not found

Destination Runways

ID Width Length Bearing (true) Bearing (mag) Surface Threshold Offset Overrun Length
13 100 ft / 30 m 5,223 ft / 1,592 m 128.27° 133.23° Asphalt 0 ft / 0 m 0 ft / 0 m
31 100 ft / 30 m 5,223 ft / 1,592 m 308.27° 313.23° Asphalt 0 ft / 0 m 0 ft / 0 m

Approach Navaids

Runway Type Ident Frequency Range Bearing (true) Bearing (mag) Slope Elevation
31 Localiser FFC 111.95 MHz 18 nm / 33 km 308.29° 313.24° - 808 ft / 246 m (AMSL)
31 DME FFC 111.95 MHz 18 nm / 33 km - - - 808 ft / 246 m (AMSL)